Time;durP1;ratioP1;P1;durP2;ratioP2;P2;SDS_P1;SDS_P2;PMS_P1;PMS_P2;Temp;Humidity;BMP_temperature;BMP_pressure;BME280_temperature;BME280_humidity;BME280_pressure;Samples;Min_cycle;Max_cycle;Signal;HPM_P1;HPM_P2
2023/03/13 00:01:01;;;;;;;17.38;11.85;;;9.40;58.80;;;;;;5005378;28;20492;-73
2023/03/13 00:03:27;;;;;;;16.65;11.32;;;9.30;58.90;;;;;;5012069;28;20023;-72
2023/03/13 00:05:57;;;;;;;17.52;12.43;;;9.30;58.90;;;;;;4996112;28;20019;-72
2023/03/13 00:08:28;;;;;;;16.55;11.70;;;9.30;59.00;;;;;;4997318;28;20510;-72
2023/03/13 00:10:55;;;;;;;15.93;11.55;;;9.30;59.00;;;;;;4996087;28;20054;-72
2023/03/13 00:13:21;;;;;;;16.65;12.35;;;9.20;58.90;;;;;;5005688;28;20025;-72
2023/03/13 00:15:46;;;;;;;16.98;12.00;;;9.20;58.90;;;;;;5015906;28;20105;-74
2023/03/13 00:18:12;;;;;;;15.80;12.02;;;9.20;59.00;;;;;;5012950;28;20109;-72
2023/03/13 00:20:38;;;;;;;18.35;11.68;;;9.20;59.10;;;;;;5015731;28;20022;-72
2023/03/13 00:23:04;;;;;;;19.73;12.48;;;9.20;59.10;;;;;;4997880;28;20041;-71
2023/03/13 00:25:30;;;;;;;19.45;12.95;;;9.10;59.10;;;;;;4996085;28;20038;-72
2023/03/13 00:27:55;;;;;;;19.92;12.52;;;9.10;59.20;;;;;;4995550;28;20404;-72
2023/03/13 00:30:21;;;;;;;15.27;11.30;;;9.10;59.30;;;;;;4994785;28;20027;-72
2023/03/13 00:32:47;;;;;;;14.88;11.18;;;9.00;59.20;;;;;;4996447;28;20033;-72
2023/03/13 00:35:14;;;;;;;19.88;13.05;;;9.00;59.30;;;;;;5013806;28;20018;-72
2023/03/13 00:37:40;;;;;;;16.65;12.82;;;9.00;59.40;;;;;;5014135;28;20033;-72
2023/03/13 00:40:07;;;;;;;15.77;11.65;;;9.00;59.40;;;;;;4997406;28;20022;-72
2023/03/13 00:42:34;;;;;;;18.00;12.65;;;9.00;59.30;;;;;;4996979;28;20084;-72
2023/03/13 00:45:00;;;;;;;18.83;12.40;;;8.90;59.20;;;;;;4997899;28;20026;-72
2023/03/13 00:47:26;;;;;;;19.17;12.35;;;8.90;59.40;;;;;;4995211;28;20029;-72
2023/03/13 00:49:52;;;;;;;17.27;11.55;;;8.90;60.10;;;;;;5006263;28;20038;-72
2023/03/13 00:52:18;;;;;;;17.65;12.98;;;8.90;59.50;;;;;;5015353;28;20037;-72
2023/03/13 00:54:43;;;;;;;19.20;12.75;;;8.80;59.70;;;;;;5014719;28;20372;-72
2023/03/13 00:57:09;;;;;;;19.88;14.10;;;8.80;59.60;;;;;;5012776;28;20058;-72
2023/03/13 00:59:35;;;;;;;16.67;12.60;;;8.70;59.70;;;;;;4996174;28;20041;-71
2023/03/13 01:02:01;;;;;;;18.38;12.10;;;8.70;59.80;;;;;;5007816;28;20399;-72
2023/03/13 01:04:26;;;;;;;20.50;13.63;;;8.70;59.80;;;;;;5011208;28;20022;-72
2023/03/13 01:06:52;;;;;;;17.20;11.98;;;8.60;59.90;;;;;;4994739;28;20502;-72
2023/03/13 01:09:18;;;;;;;22.90;13.35;;;8.60;59.90;;;;;;4995502;28;20468;-72
2023/03/13 01:11:45;;;;;;;17.73;12.77;;;8.60;60.00;;;;;;4994048;28;20109;-72
2023/03/13 01:14:14;;;;;;;17.73;12.60;;;8.50;60.10;;;;;;5002768;28;20129;-72
2023/03/13 01:16:40;;;;;;;18.42;13.02;;;8.50;60.20;;;;;;5014416;28;20030;-72
2023/03/13 01:19:12;;;;;;;19.10;12.80;;;8.40;60.30;;;;;;5011074;28;20029;-72
2023/03/13 01:21:38;;;;;;;16.85;12.13;;;8.40;60.30;;;;;;4994981;28;20361;-72
2023/03/13 01:24:04;;;;;;;16.85;12.80;;;8.40;60.50;;;;;;5006956;28;20029;-71
2023/03/13 01:26:31;;;;;;;18.02;13.13;;;8.30;60.30;;;;;;4997815;28;20035;-71
2023/03/13 01:28:56;;;;;;;17.98;12.93;;;8.30;60.60;;;;;;4993852;28;20093;-72
2023/03/13 01:31:34;;;;;;;17.35;12.52;;;8.30;60.60;;;;;;4994864;28;20033;-72
2023/03/13 01:34:02;;;;;;;21.38;13.38;;;8.20;60.70;;;;;;4994785;28;20522;-71
2023/03/13 01:36:28;;;;;;;18.85;13.40;;;8.20;60.70;;;;;;4993146;28;20031;-72
2023/03/13 01:38:56;;;;;;;19.85;13.68;;;8.20;60.70;;;;;;4994467;28;20141;-72
2023/03/13 01:41:23;;;;;;;19.63;13.50;;;8.20;60.80;;;;;;4994383;28;20383;-72
2023/03/13 01:43:49;;;;;;;18.77;14.27;;;8.10;60.90;;;;;;4994510;28;20026;-72
2023/03/13 01:46:26;;;;;;;20.88;14.18;;;8.10;61.10;;;;;;4993038;28;20536;-73
2023/03/13 01:49:18;;;;;;;21.65;14.68;;;8.00;61.00;;;;;;4994511;28;20037;-72
2023/03/13 01:51:51;;;;;;;20.48;14.10;;;8.00;61.10;;;;;;4994277;28;20049;-72
2023/03/13 01:54:38;;;;;;;28.33;14.57;;;8.00;61.00;;;;;;4994836;28;20022;-72
2023/03/13 01:57:22;;;;;;;20.10;13.68;;;7.90;61.10;;;;;;4994246;28;20085;-72
2023/03/13 02:00:16;;;;;;;23.10;14.68;;;7.90;61.00;;;;;;4994237;28;20071;-72
2023/03/13 02:02:45;;;;;;;24.92;15.98;;;7.90;61.20;;;;;;4991623;28;20121;-72
2023/03/13 02:05:13;;;;;;;22.83;16.60;;;7.90;61.30;;;;;;4994024;28;20391;-72
2023/03/13 02:07:45;;;;;;;20.35;14.85;;;7.90;61.50;;;;;;4993972;28;20022;-72
2023/03/13 02:10:14;;;;;;;19.17;14.02;;;7.80;61.50;;;;;;4994325;28;20507;-72
2023/03/13 02:12:41;;;;;;;22.85;14.45;;;7.80;61.50;;;;;;4993871;28;20069;-72
2023/03/13 02:15:10;;;;;;;21.00;15.25;;;7.70;61.40;;;;;;4993792;28;20042;-72
2023/03/13 02:17:40;;;;;;;22.13;14.57;;;7.70;61.70;;;;;;4993753;28;20101;-72
2023/03/13 02:20:06;;;;;;;23.88;14.35;;;7.70;61.60;;;;;;4993826;28;20034;-72
2023/03/13 02:22:54;;;;;;;19.40;13.13;;;7.70;61.60;;;;;;4999247;28;20116;-73
2023/03/13 02:25:22;;;;;;;23.65;16.35;;;7.70;61.60;;;;;;5013114;28;20495;-72
2023/03/13 02:27:50;;;;;;;24.85;16.38;;;7.70;61.70;;;;;;5013429;28;20037;-72
2023/03/13 02:30:16;;;;;;;24.42;17.58;;;7.60;61.80;;;;;;5012148;28;20044;-72
2023/03/13 02:32:43;;;;;;;24.00;17.15;;;7.60;61.90;;;;;;5008555;28;20472;-73
2023/03/13 02:35:12;;;;;;;24.17;17.10;;;7.60;62.00;;;;;;4994002;28;20026;-72
2023/03/13 02:37:40;;;;;;;25.75;16.48;;;7.60;62.10;;;;;;4993728;28;20416;-72
2023/03/13 02:40:11;;;;;;;24.13;16.33;;;7.60;62.20;;;;;;4994722;28;20034;-72
2023/03/13 02:42:42;;;;;;;26.08;17.73;;;7.60;62.10;;;;;;4998048;28;20018;-72
2023/03/13 02:45:09;;;;;;;24.45;16.38;;;7.50;62.20;;;;;;5006512;28;20026;-72
2023/03/13 02:47:36;;;;;;;23.08;16.17;;;7.50;62.20;;;;;;4997441;28;20054;-72
2023/03/13 02:50:02;;;;;;;23.20;16.80;;;7.50;62.20;;;;;;4997770;28;20105;-72
2023/03/13 02:52:36;;;;;;;27.08;17.85;;;7.50;62.30;;;;;;4997770;28;20117;-72
2023/03/13 02:55:08;;;;;;;26.00;17.92;;;7.40;62.50;;;;;;4997746;28;20053;-72
2023/03/13 02:57:34;;;;;;;31.27;18.83;;;7.40;62.60;;;;;;4997935;28;20022;-72
2023/03/13 03:00:00;;;;;;;26.02;18.38;;;7.40;62.70;;;;;;4997890;28;20033;-72
2023/03/13 03:02:26;;;;;;;25.70;17.63;;;7.30;62.70;;;;;;4997186;28;20453;-72
2023/03/13 03:04:52;;;;;;;26.27;17.85;;;7.30;62.70;;;;;;4996041;28;20058;-72
2023/03/13 03:07:18;;;;;;;32.05;20.65;;;7.30;62.80;;;;;;4997169;28;20019;-72
2023/03/13 03:09:43;;;;;;;26.92;17.70;;;7.30;63.20;;;;;;4997210;28;20102;-72
2023/03/13 03:12:09;;;;;;;30.65;19.77;;;7.30;63.20;;;;;;5006585;28;20030;-72
2023/03/13 03:14:35;;;;;;;32.45;20.60;;;7.30;63.30;;;;;;5016457;28;20069;-72
2023/03/13 03:17:01;;;;;;;29.50;20.58;;;7.20;63.20;;;;;;5016620;28;20101;-72
2023/03/13 03:19:27;;;;;;;32.92;21.40;;;7.20;63.20;;;;;;4999695;28;20096;-72
2023/03/13 03:21:53;;;;;;;31.35;19.10;;;7.20;63.20;;;;;;4997164;28;20029;-72
2023/03/13 03:24:19;;;;;;;36.05;22.33;;;7.20;63.30;;;;;;4996959;28;20026;-72
2023/03/13 03:26:45;;;;;;;30.30;19.88;;;7.10;63.50;;;;;;4995599;28;20110;-72
2023/03/13 03:29:11;;;;;;;33.30;22.15;;;7.10;63.60;;;;;;4995623;28;20023;-72
2023/03/13 03:31:37;;;;;;;33.50;20.48;;;7.10;63.70;;;;;;4996918;28;20033;-72
2023/03/13 03:34:03;;;;;;;39.38;23.05;;;7.10;63.70;;;;;;4996567;28;20109;-72
2023/03/13 03:36:29;;;;;;;34.97;22.70;;;7.10;63.80;;;;;;4997229;28;20030;-72
2023/03/13 03:38:55;;;;;;;42.60;23.13;;;7.10;64.10;;;;;;4996672;28;20523;-73
2023/03/13 03:41:21;;;;;;;36.53;22.52;;;7.10;64.20;;;;;;4996637;28;20030;-73
2023/03/13 03:43:47;;;;;;;40.45;23.80;;;7.10;64.20;;;;;;4999270;28;20499;-72
2023/03/13 03:46:13;;;;;;;35.05;21.80;;;7.10;64.40;;;;;;4996536;28;20038;-72
2023/03/13 03:48:39;;;;;;;36.22;23.30;;;7.10;64.40;;;;;;4996725;28;20420;-72
2023/03/13 03:51:05;;;;;;;34.85;21.65;;;7.10;64.40;;;;;;4994794;28;20026;-73
2023/03/13 03:53:31;;;;;;;34.03;22.98;;;7.20;64.40;;;;;;4995946;28;20022;-72
2023/03/13 03:55:58;;;;;;;44.17;25.17;;;7.20;64.50;;;;;;4996592;28;20357;-72
2023/03/13 03:58:24;;;;;;;38.13;22.85;;;7.20;64.60;;;;;;4996315;28;20097;-73
2023/03/13 04:00:49;;;;;;;43.55;26.15;;;7.20;64.70;;;;;;4996305;28;20050;-73
2023/03/13 04:03:16;;;;;;;38.13;23.70;;;7.20;64.70;;;;;;4996094;28;20065;-73
2023/03/13 04:05:42;;;;;;;39.65;23.98;;;7.30;64.80;;;;;;4998000;28;20053;-72
2023/03/13 04:08:09;;;;;;;42.65;23.85;;;7.30;65.00;;;;;;4994843;28;20034;-73
2023/03/13 04:10:35;;;;;;;38.50;22.58;;;7.30;65.70;;;;;;4996090;28;20072;-73
2023/03/13 04:13:01;;;;;;;35.55;22.98;;;7.30;64.90;;;;;;5014908;28;20029;-73
2023/03/13 04:15:27;;;;;;;52.10;23.38;;;7.30;65.00;;;;;;5012935;28;20046;-73
2023/03/13 04:17:53;;;;;;;34.35;21.00;;;7.30;65.10;;;;;;4999901;28;20034;-73
2023/03/13 04:20:19;;;;;;;31.60;20.95;;;7.30;65.00;;;;;;4996100;28;20480;-73
2023/03/13 04:22:45;;;;;;;38.67;23.45;;;7.30;64.90;;;;;;4995655;28;20058;-73
2023/03/13 04:25:11;;;;;;;56.22;32.25;;;7.40;64.90;;;;;;4995425;28;20106;-73
2023/03/13 04:27:36;;;;;;;62.10;34.92;;;7.40;65.00;;;;;;4995350;28;20108;-73
2023/03/13 04:30:03;;;;;;;55.00;28.73;;;7.40;65.00;;;;;;4995561;28;20050;-73
2023/03/13 04:32:29;;;;;;;45.38;29.00;;;7.40;64.90;;;;;;4995390;28;20022;-73
2023/03/13 04:34:55;;;;;;;38.92;24.75;;;7.40;65.00;;;;;;4995421;28;20033;-72
2023/03/13 04:37:20;;;;;;;37.45;23.83;;;7.50;65.00;;;;;;4994156;28;20050;-73
2023/03/13 04:39:46;;;;;;;35.85;22.23;;;7.50;64.90;;;;;;4995377;28;20030;-73
2023/03/13 04:42:12;;;;;;;38.10;24.05;;;7.50;64.80;;;;;;4995320;28;20044;-73
2023/03/13 04:44:38;;;;;;;39.10;24.63;;;7.60;64.90;;;;;;4995869;28;20018;-73
2023/03/13 04:47:04;;;;;;;38.42;23.05;;;7.60;65.10;;;;;;4995510;28;20431;-72
2023/03/13 04:49:30;;;;;;;31.35;19.95;;;7.60;65.00;;;;;;4995185;28;20029;-73
2023/03/13 04:51:56;;;;;;;30.10;19.65;;;7.70;64.80;;;;;;4993930;28;20387;-73
2023/03/13 04:54:21;;;;;;;35.90;19.95;;;7.70;64.60;;;;;;4993858;28;20056;-72
2023/03/13 04:56:48;;;;;;;28.90;18.70;;;7.80;64.60;;;;;;4995648;28;20073;-73
2023/03/13 04:59:15;;;;;;;29.90;19.23;;;7.80;64.50;;;;;;4994995;28;20118;-73
2023/03/13 05:01:41;;;;;;;28.17;17.85;;;7.90;64.40;;;;;;4995087;28;20022;-72
2023/03/13 05:04:08;;;;;;;28.67;18.30;;;7.90;64.40;;;;;;4995397;28;20093;-72
2023/03/13 05:06:34;;;;;;;28.02;17.83;;;8.00;64.40;;;;;;4993562;28;20053;-74
2023/03/13 05:09:00;;;;;;;27.80;17.48;;;8.00;64.30;;;;;;4994996;28;20093;-73
2023/03/13 05:11:26;;;;;;;30.42;17.83;;;8.10;64.20;;;;;;5002740;28;20026;-73
2023/03/13 05:13:52;;;;;;;28.35;17.92;;;8.10;64.20;;;;;;5013958;28;20128;-73
2023/03/13 05:16:18;;;;;;;28.10;17.63;;;8.20;64.10;;;;;;5014786;28;20049;-73
2023/03/13 05:18:44;;;;;;;29.60;16.98;;;8.20;64.00;;;;;;5013535;28;20034;-72
2023/03/13 05:21:10;;;;;;;30.30;17.08;;;8.20;64.00;;;;;;5014379;28;20037;-73
2023/03/13 05:23:36;;;;;;;30.25;17.52;;;8.30;64.00;;;;;;5012120;28;20018;-73
2023/03/13 05:26:01;;;;;;;29.00;18.52;;;8.30;63.90;;;;;;4994788;28;20018;-73
2023/03/13 05:28:27;;;;;;;33.92;19.70;;;8.30;63.90;;;;;;4994740;28;20034;-73
2023/03/13 05:30:53;;;;;;;30.33;19.20;;;8.40;63.80;;;;;;4994768;28;20023;-73
2023/03/13 05:33:19;;;;;;;30.52;18.33;;;8.40;63.70;;;;;;4993069;28;20026;-72
2023/03/13 05:35:45;;;;;;;26.33;15.93;;;8.40;63.60;;;;;;4994710;28;20033;-73
2023/03/13 05:38:12;;;;;;;29.27;18.15;;;8.50;63.70;;;;;;4992933;28;20491;-72
2023/03/13 05:40:38;;;;;;;27.98;19.33;;;8.50;63.60;;;;;;4995134;28;20030;-73
2023/03/13 05:43:04;;;;;;;27.85;16.63;;;8.60;63.70;;;;;;5013864;28;20075;-73
2023/03/13 05:45:30;;;;;;;27.63;16.45;;;8.60;63.70;;;;;;5013880;28;20471;-74
2023/03/13 05:47:57;;;;;;;27.55;16.80;;;8.60;63.70;;;;;;5013806;28;20041;-73
2023/03/13 05:50:24;;;;;;;26.00;16.42;;;8.70;63.70;;;;;;5014081;28;20022;-72
2023/03/13 05:52:49;;;;;;;28.30;17.50;;;8.70;63.60;;;;;;5013838;28;20032;-72
2023/03/13 05:55:16;;;;;;;25.00;15.25;;;8.80;63.60;;;;;;4999870;28;20544;-72
2023/03/13 05:57:45;;;;;;;30.70;17.73;;;8.80;63.60;;;;;;4994170;28;20372;-73
2023/03/13 06:00:13;;;;;;;32.35;18.73;;;8.90;63.50;;;;;;4994244;28;20033;-72
2023/03/13 06:02:38;;;;;;;29.60;18.10;;;8.90;63.50;;;;;;4994166;28;20550;-72
2023/03/13 06:05:08;;;;;;;33.10;18.83;;;8.90;63.40;;;;;;4994031;28;20105;-72
2023/03/13 06:07:34;;;;;;;37.83;19.55;;;9.00;63.40;;;;;;4993729;28;20469;-72
2023/03/13 06:10:00;;;;;;;28.55;17.27;;;9.00;63.40;;;;;;4993832;28;20133;-72
2023/03/13 06:12:26;;;;;;;25.33;16.17;;;9.10;63.30;;;;;;5007295;28;20066;-72
2023/03/13 06:14:52;;;;;;;26.52;17.30;;;9.10;63.30;;;;;;5011562;28;20049;-72
2023/03/13 06:17:17;;;;;;;26.00;16.00;;;9.10;63.30;;;;;;5013466;28;20034;-73
2023/03/13 06:19:44;;;;;;;26.17;15.82;;;9.20;64.10;;;;;;5013255;28;20109;-72
2023/03/13 06:22:10;;;;;;;26.00;16.25;;;9.20;63.20;;;;;;5012070;28;20450;-72
2023/03/13 06:24:36;;;;;;;25.02;16.35;;;9.30;63.20;;;;;;5004697;28;20114;-72
2023/03/13 06:27:06;;;;;;;28.38;17.85;;;9.30;63.10;;;;;;4992284;28;20077;-72
2023/03/13 06:29:31;;;;;;;36.47;22.15;;;9.40;63.10;;;;;;4993584;28;20050;-72
2023/03/13 06:31:57;;;;;;;30.27;20.15;;;9.40;63.00;;;;;;5009272;28;20100;-73
2023/03/13 06:34:23;;;;;;;28.40;18.58;;;9.50;63.20;;;;;;5012824;28;20076;-72
2023/03/13 06:36:49;;;;;;;27.20;17.13;;;9.50;63.10;;;;;;5013162;28;20114;-73
2023/03/13 06:39:14;;;;;;;25.15;16.52;;;9.50;63.10;;;;;;5006986;28;20413;-73
2023/03/13 06:41:40;;;;;;;30.58;17.98;;;9.50;63.10;;;;;;5000097;28;20360;-72
2023/03/13 06:44:06;;;;;;;23.75;15.57;;;9.60;63.10;;;;;;5012946;28;20102;-73
2023/03/13 06:46:32;;;;;;;25.30;16.27;;;9.70;63.00;;;;;;5013426;28;20014;-73
2023/03/13 06:48:59;;;;;;;29.75;16.80;;;9.70;62.90;;;;;;5011688;28;20024;-72
2023/03/13 06:51:25;;;;;;;21.15;14.57;;;9.80;62.90;;;;;;5012671;28;20030;-73
2023/03/13 06:53:51;;;;;;;26.83;15.10;;;9.80;62.80;;;;;;5012672;28;20101;-72
2023/03/13 06:56:17;;;;;;;30.77;14.38;;;9.90;62.90;;;;;;4993360;28;20030;-72
2023/03/13 06:58:47;;;;;;;39.70;18.05;;;9.90;62.90;;;;;;4993311;28;20118;-72
2023/03/13 07:01:14;;;;;;;22.35;14.35;;;10.00;63.00;;;;;;4993124;28;20029;-73
2023/03/13 07:03:40;;;;;;;24.33;15.00;;;10.10;62.90;;;;;;4993217;28;20022;-73
2023/03/13 07:06:07;;;;;;;26.60;16.05;;;10.10;62.80;;;;;;4993216;28;20022;-73
2023/03/13 07:08:34;;;;;;;49.70;21.27;;;10.20;62.80;;;;;;4993737;28;20104;-73
2023/03/13 07:11:08;;;;;;;43.33;22.33;;;10.30;62.80;;;;;;4993069;28;20030;-72
2023/03/13 07:13:34;;;;;;;44.25;21.45;;;10.40;62.90;;;;;;5020391;28;20436;-72
2023/03/13 07:16:03;;;;;;;33.30;19.67;;;10.50;62.80;;;;;;4992069;28;20042;-72
2023/03/13 07:18:29;;;;;;;30.38;16.95;;;10.60;62.70;;;;;;4993356;28;20034;-73
2023/03/13 07:20:57;;;;;;;28.63;15.88;;;10.70;62.60;;;;;;4993283;28;20093;-72
2023/03/13 07:23:24;;;;;;;27.88;15.13;;;10.80;62.50;;;;;;4993230;28;20097;-72
2023/03/13 07:26:01;;;;;;;27.23;14.25;;;10.90;62.30;;;;;;4991944;28;20034;-72
2023/03/13 07:28:29;;;;;;;24.67;15.35;;;11.00;62.20;;;;;;4994962;28;20391;-73
2023/03/13 07:31:02;;;;;;;26.25;15.93;;;11.10;62.00;;;;;;5013267;28;20030;-73
2023/03/13 07:33:27;;;;;;;27.63;16.88;;;11.20;61.80;;;;;;5016406;28;20029;-73
2023/03/13 07:35:53;;;;;;;25.52;15.35;;;11.30;61.60;;;;;;5016331;28;20026;-73
2023/03/13 07:38:19;;;;;;;25.30;16.35;;;11.40;61.40;;;;;;5006450;28;20046;-72
2023/03/13 07:40:49;;;;;;;33.20;17.98;;;11.40;61.20;;;;;;4996562;28;20022;-72
2023/03/13 07:43:15;;;;;;;30.55;17.60;;;11.50;61.00;;;;;;5013831;28;20030;-73
2023/03/13 07:45:59;;;;;;;30.02;16.23;;;11.60;60.80;;;;;;5014870;28;20080;-73
2023/03/13 07:48:31;;;;;;;23.93;15.70;;;11.70;60.70;;;;;;5016423;28;20062;-73
2023/03/13 07:50:59;;;;;;;23.52;14.82;;;11.80;60.70;;;;;;5016379;28;20026;-73
2023/03/13 07:53:25;;;;;;;19.42;13.60;;;11.80;60.50;;;;;;5015968;28;20022;-72
2023/03/13 07:55:59;;;;;;;24.40;14.73;;;12.00;60.40;;;;;;5015988;28;20084;-73
2023/03/13 07:58:28;;;;;;;24.50;15.32;;;12.00;60.10;;;;;;5010654;28;20061;-73
2023/03/13 08:00:54;;;;;;;27.58;14.85;;;12.10;60.00;;;;;;4995001;28;20029;-72
2023/03/13 08:03:20;;;;;;;23.15;14.23;;;12.20;59.90;;;;;;4996173;28;20476;-73
2023/03/13 08:05:46;;;;;;;26.13;14.35;;;12.30;59.60;;;;;;4996117;28;20019;-73
2023/03/13 08:08:12;;;;;;;28.77;15.35;;;12.40;59.50;;;;;;4996504;28;20093;-72
2023/03/13 08:10:38;;;;;;;25.85;15.15;;;12.50;59.10;;;;;;4994718;28;20105;-73
2023/03/13 08:13:04;;;;;;;24.25;14.70;;;12.50;58.80;;;;;;4994448;28;20507;-73
2023/03/13 08:15:30;;;;;;;25.95;14.02;;;12.60;58.80;;;;;;4995882;28;20630;-73
2023/03/13 08:17:56;;;;;;;23.40;14.38;;;12.60;58.80;;;;;;4995901;28;20030;-73
2023/03/13 08:20:22;;;;;;;25.05;14.82;;;12.70;58.70;;;;;;4996113;28;20032;-73
2023/03/13 08:22:49;;;;;;;21.85;14.18;;;12.80;58.80;;;;;;4994609;28;20369;-73
2023/03/13 08:25:15;;;;;;;21.75;13.93;;;12.90;58.70;;;;;;4995814;28;20019;-73
2023/03/13 08:27:41;;;;;;;20.45;13.68;;;12.90;58.80;;;;;;4996069;28;20502;-72
2023/03/13 08:30:08;;;;;;;25.48;12.82;;;13.10;58.90;;;;;;4995753;28;20026;-73
2023/03/13 08:32:35;;;;;;;25.73;14.07;;;13.20;58.60;;;;;;4994149;28;20109;-73
2023/03/13 08:35:01;;;;;;;20.35;12.30;;;13.40;58.00;;;;;;4995540;28;20080;-73
2023/03/13 08:37:27;;;;;;;22.15;12.20;;;13.50;57.70;;;;;;5008859;28;20426;-73
2023/03/13 08:39:55;;;;;;;19.70;11.63;;;13.60;57.50;;;;;;5014331;28;20033;-73
2023/03/13 08:42:22;;;;;;;20.33;11.15;;;13.70;57.80;;;;;;5014516;28;20030;-73
2023/03/13 08:44:48;;;;;;;18.70;10.95;;;13.70;57.00;;;;;;5014834;28;20566;-73
2023/03/13 08:47:14;;;;;;;26.95;12.18;;;13.80;56.70;;;;;;5006462;28;20101;-73
2023/03/13 08:49:39;;;;;;;18.67;11.43;;;13.80;55.80;;;;;;4995392;28;20101;-73
2023/03/13 08:52:06;;;;;;;21.90;11.70;;;13.80;55.70;;;;;;4995540;28;20061;-73
2023/03/13 08:54:32;;;;;;;21.42;13.00;;;13.90;56.00;;;;;;4995142;28;20546;-74
2023/03/13 08:56:58;;;;;;;19.83;10.48;;;13.90;55.30;;;;;;4995053;28;20038;-73
2023/03/13 08:59:25;;;;;;;20.23;10.60;;;13.90;55.40;;;;;;4993894;28;20026;-74
2023/03/13 09:01:51;;;;;;;17.20;10.13;;;14.00;55.60;;;;;;4995026;28;20471;-73
2023/03/13 09:04:18;;;;;;;22.70;11.48;;;14.10;55.80;;;;;;4995259;28;20029;-74
2023/03/13 09:06:43;;;;;;;23.48;11.20;;;14.10;55.70;;;;;;4994920;28;20034;-73
2023/03/13 09:09:10;;;;;;;18.40;11.25;;;14.20;55.70;;;;;;5010932;28;20030;-74
2023/03/13 09:11:38;;;;;;;25.00;11.00;;;14.20;55.70;;;;;;5012157;28;20088;-74
2023/03/13 09:14:05;;;;;;;16.05;10.10;;;14.20;55.40;;;;;;5012944;28;20053;-73
2023/03/13 09:16:33;;;;;;;21.67;10.07;;;14.30;55.40;;;;;;5009719;28;20108;-73
2023/03/13 09:18:58;;;;;;;24.48;10.25;;;14.30;55.40;;;;;;4998019;28;20468;-73
2023/03/13 09:21:27;;;;;;;21.70;11.32;;;14.30;55.30;;;;;;4994635;28;20033;-73
2023/03/13 09:23:53;;;;;;;23.10;10.80;;;14.40;55.00;;;;;;4994732;28;20022;-73
2023/03/13 09:26:20;;;;;;;23.60;10.73;;;14.40;55.20;;;;;;5004352;28;20030;-73
2023/03/13 09:28:47;;;;;;;19.45;9.93;;;14.50;55.30;;;;;;5012394;28;20022;-73
2023/03/13 09:31:18;;;;;;;19.38;10.13;;;14.50;54.90;;;;;;5012976;28;20045;-73
2023/03/13 09:33:46;;;;;;;28.05;11.93;;;14.50;54.70;;;;;;5014087;28;20021;-73
2023/03/13 09:36:12;;;;;;;31.15;12.00;;;14.60;54.50;;;;;;4998967;28;20503;-73
2023/03/13 09:38:38;;;;;;;27.30;11.85;;;14.60;54.40;;;;;;4994378;28;20453;-73
2023/03/13 09:41:16;;;;;;;34.35;12.85;;;14.60;53.90;;;;;;4994091;28;20025;-73
2023/03/13 09:44:03;;;;;;;24.33;11.07;;;14.50;53.60;;;;;;4994286;28;20088;-73
2023/03/13 09:46:41;;;;;;;16.92;9.43;;;14.60;54.20;;;;;;4994269;28;20045;-74
2023/03/13 09:49:14;;;;;;;16.27;9.65;;;14.60;54.30;;;;;;4993870;28;20073;-73
2023/03/13 09:51:43;;;;;;;18.15;9.32;;;14.70;54.50;;;;;;4994094;28;20029;-73
2023/03/13 09:54:23;;;;;;;32.45;10.60;;;14.80;55.20;;;;;;4998672;28;20448;-73
2023/03/13 09:57:09;;;;;;;30.02;11.50;;;14.90;54.30;;;;;;5001702;28;20038;-73
2023/03/13 09:59:47;;;;;;;26.98;11.15;;;15.00;54.20;;;;;;4994480;28;20019;-73
2023/03/13 10:02:32;;;;;;;21.27;11.45;;;15.10;54.20;;;;;;4994195;28;20030;-73
2023/03/13 10:05:13;;;;;;;24.10;11.27;;;15.20;54.20;;;;;;5005004;28;20379;-73
2023/03/13 10:07:39;;;;;;;21.45;10.48;;;15.30;54.00;;;;;;5032054;28;20021;-74
2023/03/13 10:10:41;;;;;;;28.75;11.00;;;15.50;53.90;;;;;;5020829;28;20026;-74
2023/03/13 10:13:48;;;;;;;26.65;11.80;;;15.60;53.70;;;;;;4972754;28;20038;-74
2023/03/13 10:16:23;;;;;;;30.17;14.85;;;15.80;53.60;;;;;;4972763;28;20035;-73
2023/03/13 10:18:54;;;;;;;26.65;13.50;;;15.90;53.00;;;;;;4972418;28;20027;-73
2023/03/13 10:21:23;;;;;;;23.75;12.27;;;15.90;52.80;;;;;;4972465;28;20031;-73
2023/03/13 10:24:10;;;;;;;29.02;11.68;;;16.00;52.30;;;;;;4972632;28;20035;-74
2023/03/13 10:26:37;;;;;;;17.75;10.77;;;16.10;52.30;;;;;;4972545;28;20030;-73
2023/03/13 10:29:23;;;;;;;22.33;10.38;;;16.10;52.10;;;;;;4972581;28;20106;-73
2023/03/13 10:32:00;;;;;;;17.10;9.18;;;16.10;51.90;;;;;;4955639;28;20239;-74
2023/03/13 10:34:44;;;;;;;19.05;9.77;;;16.10;51.40;;;;;;4971225;28;20038;-73
2023/03/13 10:37:15;;;;;;;20.73;10.15;;;16.10;51.40;;;;;;4956440;28;20045;-73
2023/03/13 10:39:41;;;;;;;19.70;10.48;;;16.00;51.40;;;;;;4972265;28;20067;-73
2023/03/13 10:42:34;;;;;;;23.13;9.77;;;16.00;51.60;;;;;;4971630;28;20082;-74
2023/03/13 10:45:04;;;;;;;16.20;9.02;;;15.90;51.60;;;;;;4968153;28;20042;-74
2023/03/13 10:47:33;;;;;;;19.70;9.27;;;15.90;51.90;;;;;;4952947;29;20054;-74
2023/03/13 10:50:00;;;;;;;13.45;8.73;;;16.00;51.80;;;;;;4978137;28;20061;-73
2023/03/13 10:52:46;;;;;;;16.13;9.38;;;16.00;51.80;;;;;;5005425;28;20045;-74
2023/03/13 10:55:23;;;;;;;28.80;11.20;;;16.10;51.90;;;;;;5013455;28;20025;-73
2023/03/13 10:58:04;;;;;;;25.67;12.02;;;16.20;51.80;;;;;;4997222;28;20476;-73
2023/03/13 11:00:37;;;;;;;26.08;11.27;;;16.30;51.70;;;;;;5005237;28;20081;-73
2023/03/13 11:03:33;;;;;;;20.05;10.90;;;16.40;51.70;;;;;;5013311;28;20033;-73
2023/03/13 11:06:00;;;;;;;25.33;10.63;;;16.50;51.80;;;;;;4972468;28;20081;-73
2023/03/13 11:08:34;;;;;;;25.00;11.45;;;16.60;51.10;;;;;;4956952;29;20429;-74
2023/03/13 11:11:14;;;;;;;25.45;11.85;;;16.70;50.90;;;;;;4956852;29;20062;-74
2023/03/13 11:13:42;;;;;;;29.60;12.63;;;16.80;51.00;;;;;;4956090;29;20039;-74
2023/03/13 11:16:27;;;;;;;32.00;10.40;;;16.90;50.80;;;;;;4968489;28;20062;-73
2023/03/13 11:19:31;;;;;;;20.42;10.35;;;17.00;50.60;;;;;;4972163;28;20117;-73
2023/03/13 11:22:05;;;;;;;32.50;11.45;;;17.00;50.60;;;;;;4967907;28;20065;-73
2023/03/13 11:24:39;;;;;;;;;;;17.20;50.50;;;;;;4976146;28;20022;-74
2023/03/13 11:27:29;;;;;;;26.75;11.65;;;17.20;51.40;;;;;;4974885;28;19946;-74
2023/03/13 11:30:16;;;;;;;32.80;12.45;;;17.30;50.30;;;;;;4975448;28;20057;-74
2023/03/13 11:32:54;;;;;;;21.67;11.38;;;17.40;50.30;;;;;;4961029;28;20142;-73
2023/03/13 11:35:20;;;;;;;22.95;12.23;;;17.50;49.80;;;;;;4974360;28;20074;-74
2023/03/13 11:37:50;;;;;;;25.75;11.57;;;17.60;49.70;;;;;;4974820;28;20535;-73
2023/03/13 11:40:35;;;;;;;22.40;11.77;;;17.70;49.80;;;;;;4975115;28;20018;-73
2023/03/13 11:43:24;;;;;;;25.52;12.40;;;17.80;49.60;;;;;;5007586;28;20121;-73
2023/03/13 11:46:08;;;;;;;23.73;11.48;;;17.80;48.90;;;;;;5016076;28;20026;-74
2023/03/13 11:48:34;;;;;;;;;;;17.90;49.00;;;;;;5016800;28;20599;-73
2023/03/13 11:51:16;;;;;;;25.85;10.90;;;18.00;50.20;;;;;;5016278;28;19914;-74
2023/03/13 11:53:45;;;;;;;26.25;11.38;;;18.10;48.60;;;;;;5016321;28;20072;-73
2023/03/13 11:56:34;;;;;;;22.92;10.23;;;18.10;48.30;;;;;;5015939;28;20057;-73
2023/03/13 11:59:26;;;;;;;23.50;10.80;;;18.30;48.50;;;;;;4996591;28;20038;-74
2023/03/13 12:02:16;;;;;;;19.98;9.77;;;18.40;48.30;;;;;;5011908;28;20037;-74
2023/03/13 12:05:00;;;;;;;23.20;8.95;;;18.50;48.10;;;;;;5014866;28;20029;-74
2023/03/13 12:07:46;;;;;;;23.40;10.50;;;18.60;47.70;;;;;;5021935;28;20025;-74
2023/03/13 12:10:32;;;;;;;29.58;11.45;;;18.60;47.50;;;;;;5014097;28;20026;-74
2023/03/13 12:13:03;;;;;;;24.83;12.13;;;18.80;46.40;;;;;;4996828;28;20105;-73
2023/03/13 12:15:40;;;;;;;23.02;11.70;;;18.80;46.80;;;;;;5000369;28;20044;-73
2023/03/13 12:18:26;;;;;;;31.10;15.18;;;18.90;46.80;;;;;;5002052;28;20073;-73
2023/03/13 12:21:11;;;;;;;38.70;18.42;;;18.90;45.40;;;;;;5027998;28;20034;-73
2023/03/13 12:23:57;;;;;;;39.85;18.55;;;18.90;45.30;;;;;;5003312;28;20037;-74
2023/03/13 12:26:44;;;;;;;41.95;19.73;;;18.90;45.20;;;;;;5000084;28;20018;-73
2023/03/13 12:29:15;;;;;;;41.60;20.25;;;18.90;45.20;;;;;;5014663;28;20096;-73
2023/03/13 12:32:06;;;;;;;44.17;20.90;;;19.00;45.60;;;;;;5020536;28;20032;-73
2023/03/13 12:34:56;;;;;;;39.58;20.10;;;18.90;45.00;;;;;;5014118;28;20025;-73
2023/03/13 12:37:44;;;;;;;40.70;18.92;;;18.90;45.40;;;;;;5023953;28;20033;-73
2023/03/13 12:40:32;;;;;;;38.20;19.48;;;19.00;45.50;;;;;;5030852;28;20026;-73
2023/03/13 12:43:09;;;;;;;38.30;19.40;;;19.10;45.70;;;;;;5014926;28;20022;-73
2023/03/13 12:45:44;;;;;;;31.58;17.50;;;19.10;44.70;;;;;;5018753;28;20558;-73
2023/03/13 12:48:36;;;;;;;37.95;19.67;;;19.10;44.70;;;;;;5013329;28;20065;-74